Flight Track Log - Related Links

Times and Time Zones

All times are in EDT time to prevent confusion due to time zone crossing. See the N1687X flight status page for this flight to view local times or setup timezone preferences in your user account.

Time Position Orientation Groundspeed Altitude Reporting Facility
EDT Latitude Longitude Course Direction KTS MPH feet Rate Location/Type
Wed 04:06:30 PM 44.5592 -99.3347 88° East 181 208 13,400  Level Minneapolis Center
Wed 04:07:32 PM 44.5556 -99.2628 94° East 183 211 13,400 -145 Level Minneapolis Center
Wed 04:08:34 PM 44.5461 -99.1906 100° East 188 216 13,100 -290 Descending Minneapolis Center
Wed 04:09:36 PM 44.5358 -99.1161 101° East 192 221 12,800  Descending Minneapolis Center
Wed 04:10:38 PM 44.5264 -99.0444 100° East 190 219 13,100 97 Climbing Minneapolis Center
Wed 04:11:00 PM 44.3779 -97.8707 88° East  Level Estimated
Wed 04:11:40 PM 44.5144 -98.9644 102° East 179 206 13,000  Level Minneapolis Center
Wed 04:12:42 PM 44.5072 -98.8958 98° East 178 205 13,000 48 Level Minneapolis Center
Wed 04:13:44 PM 44.4989 -98.8264 100° East 180 207 13,100  Climbing Minneapolis Center
Wed 04:14:46 PM 44.4881 -98.7578 102° East 181 208 13,000  Descending Minneapolis Center
Wed 04:15:48 PM 44.4831 -98.6869 96° East 182 209 13,100 48 Climbing Minneapolis Center
Wed 04:16:51 PM 44.4733 -98.6192 101° East 180 207 13,100 -48 Level Minneapolis Center
Wed 04:17:53 PM 44.4611 -98.5358 102° East 181 208 13,000 -48 Descending Minneapolis Center
Wed 04:18:55 PM 44.4503 -98.4658 102° East 184 212 13,000  Level Minneapolis Center
Wed 04:19:57 PM 44.4400 -98.3972 102° East 182 209 13,000  Level Minneapolis Center
Wed 04:20:59 PM 44.4344 -98.3214 96° East 181 208 13,000 48 Level Minneapolis Center
Wed 04:22:01 PM 44.4300 -98.2506 95° East 182 209 13,100 48 Climbing Minneapolis Center
Wed 04:23:03 PM 44.4331 -98.1781 87° East 184 212 13,100  Level Minneapolis Center
Wed 04:24:05 PM 44.4358 -98.1067 87° East 184 212 13,100 -48 Level Minneapolis Center
Wed 04:25:07 PM 44.4375 -98.0344 88° East 186 214 13,000 -48 Descending Minneapolis Center
Wed 04:26:10 PM 44.4344 -97.9486 93° East 185 213 13,000  Level Minneapolis Center
Wed 04:27:12 PM 44.4369 -97.8789 87° East 181 208 13,000  Level Minneapolis Center
Wed 04:28:14 PM 44.4417 -97.8069 85° East 184 212 13,000  Level Minneapolis Center
Wed 04:29:16 PM 44.4433 -97.7367 88° East 183 211 13,000  Level Minneapolis Center
Wed 04:30:18 PM 44.4433 -97.6658 90° East 182 209 13,000  Level Minneapolis Center
Wed 04:31:20 PM 44.4453 -97.5953 88° East 183 211 13,000 48 Level Minneapolis Center
Wed 04:32:22 PM 44.4494 -97.5100 86° East 183 211 13,100 48 Climbing Minneapolis Center
Wed 04:33:24 PM 44.4531 -97.4394 86° East 183 211 13,100 -48 Level Minneapolis Center
Wed 04:34:26 PM 44.4550 -97.3703 88° East 180 207 13,000 -48 Descending Minneapolis Center
Wed 04:35:28 PM 44.4553 -97.3014 90° East 178 205 13,000  Level Minneapolis Center
Wed 04:36:31 PM 44.4544 -97.2344 91° East 174 200 13,000 48 Level Minneapolis Center
Wed 04:37:33 PM 44.4575 -97.1525 87° East 176 203 13,100  Climbing Minneapolis Center
Wed 04:38:37 PM 44.4581 -97.0836 89° East 176 203 13,000  Descending Minneapolis Center
Wed 04:39:39 PM 44.4611 -97.0147 86° East 178 205 13,100  Climbing Minneapolis Center
Wed 04:40:41 PM 44.4617 -96.9464 89° East 177 204 13,000  Descending Minneapolis Center
Wed 04:41:43 PM 44.4617 -96.8778 90° East 177 204 13,100 48 Climbing Minneapolis Center
Wed 04:42:45 PM 44.4642 -96.7956 88° East 176 203 13,100  Level Minneapolis Center
Wed 04:43:47 PM 44.4617 -96.7250 93° East 179 206 13,100 -48 Level Minneapolis Center
Wed 04:44:49 PM 44.4656 -96.6564 85° East 178 205 13,000 -48 Descending Minneapolis Center
Wed 04:45:51 PM 44.4681 -96.5861 87° East 180 207 13,000 -48 Level Minneapolis Center
Wed 04:46:53 PM 44.4700 -96.5183 88° East 176 203 12,900  Descending Minneapolis Center
Wed 04:47:55 PM 44.4714 -96.4508 88° East 174 200 13,000 48 Climbing Minneapolis Center
Wed 04:48:57 PM 44.4656 -96.3842 97° East 172 198 13,000  Level Minneapolis Center
Wed 04:50:00 PM 44.4639 -96.3014 92° East 176 203 13,000 -48 Level Minneapolis Center
Wed 04:51:02 PM 44.4681 -96.2336 85° East 175 201 12,900 -48 Descending Minneapolis Center
Wed 04:52:04 PM 44.4697 -96.1661 88° East 173 199 12,900 48 Level Minneapolis Center
Wed 04:53:06 PM 44.4719 -96.0997 87° East 171 197 13,000 97 Climbing Minneapolis Center
Wed 04:54:08 PM 44.4725 -96.0336 89° East 170 196 13,100  Climbing Minneapolis Center
Wed 04:55:10 PM 44.4756 -95.9675 86° East 170 196 13,000 -48 Descending Minneapolis Center
Wed 04:56:12 PM 44.4808 -95.8858 85° East 174 200 13,000  Level Minneapolis Center
Wed 04:57:14 PM 44.4825 -95.8197 88° East 172 198 13,000  Level Minneapolis Center
Wed 04:58:16 PM 44.4847 -95.7531 87° East 172 198 13,000  Level Minneapolis Center
Wed 04:59:19 PM 44.4794 -95.6869 96° East 171 197 13,000  Level Minneapolis Center
Wed 05:00:21 PM 44.4772 -95.6217 93° East 169 194 13,000  Level Minneapolis Center
Wed 05:01:23 PM 44.4725 -95.5575 96° East 167 192 13,000  Level Minneapolis Center
Wed 05:02:25 PM 44.4658 -95.4808 97° East 166 191 13,000 -48 Level Minneapolis Center
Wed 05:03:27 PM 44.4639 -95.4167 92° East 165 190 12,900 -242 Descending Minneapolis Center
Wed 05:04:29 PM 44.4606 -95.3481 94° East 172 198 12,500 -435 Descending Minneapolis Center
Wed 05:05:31 PM 44.4606 -95.2758 90° East 181 208 12,000 -484 Descending Minneapolis Center
Wed 05:06:33 PM 44.4608 -95.2011 90° East 189 217 11,500 -528 Descending Minneapolis Center
Wed 05:07:36 PM 44.4681 -95.1275 82° East 191 220 10,900 -576 Descending Minneapolis Center
Wed 05:08:38 PM 44.4558 -95.0447 102° East 183 211 10,300 -532 Descending Minneapolis Center
Wed 05:09:40 PM 44.4400 -94.9747 108° East 187 215 9,800 -484 Descending Minneapolis Center
Wed 05:10:42 PM 44.4269 -94.9058 105° East 186 214 9,300 -532 Descending Minneapolis Center
Wed 05:11:44 PM 44.4153 -94.8369 103° East 184 212 8,700 -532 Descending Minneapolis Center
Wed 05:12:46 PM 44.4019 -94.7675 105° East 185 213 8,200 -484 Descending Minneapolis Center
Wed 05:13:48 PM 44.3872 -94.6978 106° East 186 214 7,700 -484 Descending Minneapolis Center
Wed 05:14:50 PM 44.3717 -94.6239 106° East 185 213 7,200 -484 Descending Minneapolis Center
Wed 05:15:52 PM 44.3586 -94.5536 105° East 186 214 6,700 -435 Descending Minneapolis Center
Wed 05:16:54 PM 44.3444 -94.4836 106° East 188 216 6,300 -480 Descending Minneapolis Center
Wed 05:17:57 PM 44.3250 -94.3972 107° East 192 221 5,700 -576 Descending Minneapolis Center
Wed 05:18:59 PM 44.3108 -94.3247 105° East 194 223 5,100 -581 Descending Minneapolis Center
Wed 05:20:01 PM 44.2933 -94.2544 109° East 192 221 4,500 -484 Descending Minneapolis Center
Wed 05:21:03 PM 44.2775 -94.1864 108° East 187 215 4,100 -484 Descending Minneapolis Center
Wed 05:22:05 PM 44.2633 -94.1236 107° East 175 201 3,500 -677 Descending Minneapolis Center
Wed 05:23:07 PM 44.2503 -94.0636 107° East 168 193 2,700 -774 Descending Minneapolis Center

Login

Don't have an account? Register now (free) for customized features, flight alerts, and more!